sensor_id;sensor_type;location;lat;lon;timestamp;temperature;humidity
59162;DHT22;44942;48.936;8.260;2023-04-03T00:04:57;20.70;55.60
59162;DHT22;44942;48.936;8.260;2023-04-03T00:09:58;20.70;55.80
59162;DHT22;44942;48.936;8.260;2023-04-03T00:14:58;20.70;56.00
59162;DHT22;44942;48.936;8.260;2023-04-03T00:19:59;20.80;56.20
59162;DHT22;44942;48.936;8.260;2023-04-03T00:24:59;20.80;56.30
59162;DHT22;44942;48.936;8.260;2023-04-03T00:30:00;20.80;56.40
59162;DHT22;44942;48.936;8.260;2023-04-03T00:35:01;20.80;56.40
59162;DHT22;44942;48.936;8.260;2023-04-03T00:40:02;20.70;56.80
59162;DHT22;44942;48.936;8.260;2023-04-03T00:50:04;20.40;54.80
59162;DHT22;44942;48.936;8.260;2023-04-03T00:55:07;20.20;54.20
59162;DHT22;44942;48.936;8.260;2023-04-03T01:00:12;20.10;53.70
59162;DHT22;44942;48.936;8.260;2023-04-03T01:05:15;20.00;54.00
59162;DHT22;44942;48.936;8.260;2023-04-03T01:10:18;19.90;53.00
59162;DHT22;44942;48.936;8.260;2023-04-03T01:15:23;20.00;53.10
59162;DHT22;44942;48.936;8.260;2023-04-03T01:20:35;20.10;53.60
59162;DHT22;44942;48.936;8.260;2023-04-03T01:25:52;20.20;54.00
59162;DHT22;44942;48.936;8.260;2023-04-03T01:31:15;20.20;54.30
59162;DHT22;44942;48.936;8.260;2023-04-03T01:36:27;20.30;54.60
59162;DHT22;44942;48.936;8.260;2023-04-03T01:41:28;20.30;54.70
59162;DHT22;44942;48.936;8.260;2023-04-03T01:46:30;20.40;54.80
59162;DHT22;44942;48.936;8.260;2023-04-03T01:51:30;20.40;55.00
59162;DHT22;44942;48.936;8.260;2023-04-03T01:56:31;20.40;55.10
59162;DHT22;44942;48.936;8.260;2023-04-03T02:01:32;20.40;55.10
59162;DHT22;44942;48.936;8.260;2023-04-03T02:06:32;20.40;55.20
59162;DHT22;44942;48.936;8.260;2023-04-03T02:11:33;20.40;55.40
59162;DHT22;44942;48.936;8.260;2023-04-03T02:16:33;20.50;55.60
59162;DHT22;44942;48.936;8.260;2023-04-03T02:21:34;20.50;55.70
59162;DHT22;44942;48.936;8.260;2023-04-03T02:26:35;20.50;55.80
59162;DHT22;44942;48.936;8.260;2023-04-03T02:31:35;20.50;55.90
59162;DHT22;44942;48.936;8.260;2023-04-03T02:36:36;20.50;55.80
59162;DHT22;44942;48.936;8.260;2023-04-03T02:41:36;20.50;56.60
59162;DHT22;44942;48.936;8.260;2023-04-03T02:46:37;20.50;55.90
59162;DHT22;44942;48.936;8.260;2023-04-03T02:51:38;20.50;56.00
59162;DHT22;44942;48.936;8.260;2023-04-03T02:56:38;20.50;55.90
59162;DHT22;44942;48.936;8.260;2023-04-03T03:01:39;20.50;56.10
59162;DHT22;44942;48.936;8.260;2023-04-03T03:06:39;20.50;56.10
59162;DHT22;44942;48.936;8.260;2023-04-03T03:11:40;20.50;56.00
59162;DHT22;44942;48.936;8.260;2023-04-03T03:16:41;20.50;56.00
59162;DHT22;44942;48.936;8.260;2023-04-03T03:21:41;20.50;56.00
59162;DHT22;44942;48.936;8.260;2023-04-03T03:26:42;20.50;56.10
59162;DHT22;44942;48.936;8.260;2023-04-03T03:31:43;20.50;56.10
59162;DHT22;44942;48.936;8.260;2023-04-03T03:36:43;20.50;56.10
59162;DHT22;44942;48.936;8.260;2023-04-03T03:41:45;20.50;56.10
59162;DHT22;44942;48.936;8.260;2023-04-03T03:46:46;20.50;56.10
59162;DHT22;44942;48.936;8.260;2023-04-03T03:51:46;20.50;56.20
59162;DHT22;44942;48.936;8.260;2023-04-03T03:56:47;20.50;56.10
59162;DHT22;44942;48.936;8.260;2023-04-03T04:01:47;20.50;56.10
59162;DHT22;44942;48.936;8.260;2023-04-03T04:06:48;20.50;56.10
59162;DHT22;44942;48.936;8.260;2023-04-03T04:11:49;20.50;56.20
59162;DHT22;44942;48.936;8.260;2023-04-03T04:16:49;20.50;56.10
59162;DHT22;44942;48.936;8.260;2023-04-03T04:21:50;20.50;56.20
59162;DHT22;44942;48.936;8.260;2023-04-03T04:26:50;20.50;56.20
59162;DHT22;44942;48.936;8.260;2023-04-03T04:31:51;20.50;56.20
59162;DHT22;44942;48.936;8.260;2023-04-03T04:36:51;20.50;56.30
59162;DHT22;44942;48.936;8.260;2023-04-03T04:41:52;20.40;55.50
59162;DHT22;44942;48.936;8.260;2023-04-03T04:46:53;20.10;54.60
59162;DHT22;44942;48.936;8.260;2023-04-03T04:51:53;20.00;54.30
59162;DHT22;44942;48.936;8.260;2023-04-03T04:56:54;19.90;53.90
59162;DHT22;44942;48.936;8.260;2023-04-03T05:01:55;19.70;53.50
59162;DHT22;44942;48.936;8.260;2023-04-03T05:06:55;19.60;53.00
59162;DHT22;44942;48.936;8.260;2023-04-03T05:11:56;19.60;52.90
59162;DHT22;44942;48.936;8.260;2023-04-03T05:16:57;19.80;53.00
59162;DHT22;44942;48.936;8.260;2023-04-03T05:21:57;19.80;53.30
59162;DHT22;44942;48.936;8.260;2023-04-03T05:26:58;19.90;53.60
59162;DHT22;44942;48.936;8.260;2023-04-03T05:31:59;20.00;53.80
59162;DHT22;44942;48.936;8.260;2023-04-03T05:37:00;20.00;54.00
59162;DHT22;44942;48.936;8.260;2023-04-03T05:42:01;20.10;54.10
59162;DHT22;44942;48.936;8.260;2023-04-03T05:47:02;20.10;54.20
59162;DHT22;44942;48.936;8.260;2023-04-03T05:52:03;20.10;54.30
59162;DHT22;44942;48.936;8.260;2023-04-03T05:57:03;20.10;54.30
59162;DHT22;44942;48.936;8.260;2023-04-03T06:02:04;20.10;54.40
59162;DHT22;44942;48.936;8.260;2023-04-03T06:07:05;20.20;54.50
59162;DHT22;44942;48.936;8.260;2023-04-03T06:12:05;20.20;54.60
59162;DHT22;44942;48.936;8.260;2023-04-03T06:17:06;20.20;54.50
59162;DHT22;44942;48.936;8.260;2023-04-03T06:22:08;20.20;54.50
59162;DHT22;44942;48.936;8.260;2023-04-03T06:27:10;20.20;54.50
59162;DHT22;44942;48.936;8.260;2023-04-03T06:32:11;20.20;54.50
59162;DHT22;44942;48.936;8.260;2023-04-03T06:37:19;20.20;54.50
59162;DHT22;44942;48.936;8.260;2023-04-03T06:42:20;20.20;54.50
59162;DHT22;44942;48.936;8.260;2023-04-03T06:47:21;20.20;54.50
59162;DHT22;44942;48.936;8.260;2023-04-03T06:52:21;20.20;54.50
59162;DHT22;44942;48.936;8.260;2023-04-03T06:57:22;20.20;54.60
59162;DHT22;44942;48.936;8.260;2023-04-03T07:02:23;20.20;54.50
59162;DHT22;44942;48.936;8.260;2023-04-03T07:07:24;20.20;54.60
59162;DHT22;44942;48.936;8.260;2023-04-03T07:12:24;20.20;54.50
59162;DHT22;44942;48.936;8.260;2023-04-03T07:17:25;20.20;54.50
59162;DHT22;44942;48.936;8.260;2023-04-03T07:22:27;20.20;54.50
59162;DHT22;44942;48.936;8.260;2023-04-03T07:27:27;20.20;54.60
59162;DHT22;44942;48.936;8.260;2023-04-03T07:32:28;20.20;54.50
59162;DHT22;44942;48.936;8.260;2023-04-03T07:37:29;20.20;54.50
59162;DHT22;44942;48.936;8.260;2023-04-03T07:42:30;20.20;54.50
59162;DHT22;44942;48.936;8.260;2023-04-03T07:47:31;20.20;54.60
59162;DHT22;44942;48.936;8.260;2023-04-03T07:52:31;20.20;55.30
59162;DHT22;44942;48.936;8.260;2023-04-03T07:57:32;20.20;54.60
59162;DHT22;44942;48.936;8.260;2023-04-03T08:02:32;20.20;54.50
59162;DHT22;44942;48.936;8.260;2023-04-03T08:07:36;20.20;54.50
59162;DHT22;44942;48.936;8.260;2023-04-03T08:12:37;20.20;54.50
59162;DHT22;44942;48.936;8.260;2023-04-03T08:17:38;20.20;54.50
59162;DHT22;44942;48.936;8.260;2023-04-03T08:22:39;20.20;54.50
59162;DHT22;44942;48.936;8.260;2023-04-03T08:27:39;20.20;54.50
59162;DHT22;44942;48.936;8.260;2023-04-03T08:32:40;20.20;54.50
59162;DHT22;44942;48.936;8.260;2023-04-03T08:37:43;20.20;54.50
59162;DHT22;44942;48.936;8.260;2023-04-03T08:48:23;20.20;54.50
59162;DHT22;44942;48.936;8.260;2023-04-03T08:53:26;20.20;54.50
59162;DHT22;44942;48.936;8.260;2023-04-03T08:58:52;20.20;54.50
59162;DHT22;44942;48.936;8.260;2023-04-03T09:03:53;20.20;54.50
59162;DHT22;44942;48.936;8.260;2023-04-03T09:14:36;20.20;54.50
59162;DHT22;44942;48.936;8.260;2023-04-03T09:19:52;20.20;54.50
59162;DHT22;44942;48.936;8.260;2023-04-03T09:25:15;20.20;54.50
59162;DHT22;44942;48.936;8.260;2023-04-03T09:30:22;20.20;54.50
59162;DHT22;44942;48.936;8.260;2023-04-03T09:35:29;20.20;54.50
59162;DHT22;44942;48.936;8.260;2023-04-03T09:40:37;20.20;54.50
59162;DHT22;44942;48.936;8.260;2023-04-03T09:45:40;20.20;54.50
59162;DHT22;44942;48.936;8.260;2023-04-03T09:55:57;20.20;54.60
59162;DHT22;44942;48.936;8.260;2023-04-03T10:01:00;20.20;54.60
59162;DHT22;44942;48.936;8.260;2023-04-03T10:06:03;20.20;54.60
59162;DHT22;44942;48.936;8.260;2023-04-03T10:16:14;20.20;54.60
59162;DHT22;44942;48.936;8.260;2023-04-03T10:26:58;19.80;48.90
59162;DHT22;44942;48.936;8.260;2023-04-03T10:32:22;18.70;44.00
59162;DHT22;44942;48.936;8.260;2023-04-03T10:42:53;19.10;46.50
59162;DHT22;44942;48.936;8.260;2023-04-03T10:48:24;19.30;48.00
59162;DHT22;44942;48.936;8.260;2023-04-03T10:53:49;19.40;49.20
59162;DHT22;44942;48.936;8.260;2023-04-03T11:04:37;19.50;50.50
59162;DHT22;44942;48.936;8.260;2023-04-03T11:09:41;19.60;50.80
59162;DHT22;44942;48.936;8.260;2023-04-03T11:14:42;19.70;51.20
59162;DHT22;44942;48.936;8.260;2023-04-03T11:20:04;19.70;51.40
59162;DHT22;44942;48.936;8.260;2023-04-03T11:30:31;19.70;51.90
59162;DHT22;44942;48.936;8.260;2023-04-03T11:35:34;19.70;52.10
59162;DHT22;44942;48.936;8.260;2023-04-03T11:40:36;19.80;52.30
59162;DHT22;44942;48.936;8.260;2023-04-03T11:50:51;19.70;52.60
59162;DHT22;44942;48.936;8.260;2023-04-03T12:32:22;19.80;53.30
59162;DHT22;44942;48.936;8.260;2023-04-03T12:43:09;19.80;53.40
59162;DHT22;44942;48.936;8.260;2023-04-03T12:48:17;19.90;53.50
59162;DHT22;44942;48.936;8.260;2023-04-03T12:53:19;19.80;53.50
59162;DHT22;44942;48.936;8.260;2023-04-03T12:58:25;19.90;53.60
59162;DHT22;44942;48.936;8.260;2023-04-03T13:03:27;19.90;53.60
59162;DHT22;44942;48.936;8.260;2023-04-03T13:08:28;19.90;53.70
59162;DHT22;44942;48.936;8.260;2023-04-03T13:13:29;19.90;53.60
59162;DHT22;44942;48.936;8.260;2023-04-03T13:18:36;19.90;53.70
59162;DHT22;44942;48.936;8.260;2023-04-03T13:23:40;19.90;53.70
59162;DHT22;44942;48.936;8.260;2023-04-03T13:28:44;19.90;53.70
59162;DHT22;44942;48.936;8.260;2023-04-03T13:34:12;19.90;53.80
59162;DHT22;44942;48.936;8.260;2023-04-03T13:54:37;20.00;53.80
59162;DHT22;44942;48.936;8.260;2023-04-03T13:59:38;19.90;53.90
59162;DHT22;44942;48.936;8.260;2023-04-03T14:04:55;19.90;53.80
59162;DHT22;44942;48.936;8.260;2023-04-03T14:09:58;20.00;53.80
59162;DHT22;44942;48.936;8.260;2023-04-03T14:15:04;20.00;53.80
59162;DHT22;44942;48.936;8.260;2023-04-03T14:20:06;20.00;53.80
59162;DHT22;44942;48.936;8.260;2023-04-03T14:25:07;20.00;53.80
59162;DHT22;44942;48.936;8.260;2023-04-03T14:35:23;20.00;53.80
59162;DHT22;44942;48.936;8.260;2023-04-03T14:40:26;20.00;53.80
59162;DHT22;44942;48.936;8.260;2023-04-03T14:45:27;20.00;53.70
59162;DHT22;44942;48.936;8.260;2023-04-03T14:50:28;20.00;53.80
59162;DHT22;44942;48.936;8.260;2023-04-03T14:55:31;20.00;53.70
59162;DHT22;44942;48.936;8.260;2023-04-03T15:00:32;20.00;53.70
59162;DHT22;44942;48.936;8.260;2023-04-03T15:05:32;20.00;53.70
59162;DHT22;44942;48.936;8.260;2023-04-03T15:10:35;20.00;53.70
59162;DHT22;44942;48.936;8.260;2023-04-03T15:15:36;20.10;53.70
59162;DHT22;44942;48.936;8.260;2023-04-03T15:20:37;20.00;53.80
59162;DHT22;44942;48.936;8.260;2023-04-03T15:25:38;20.00;53.60
59162;DHT22;44942;48.936;8.260;2023-04-03T15:30:39;20.00;53.60
59162;DHT22;44942;48.936;8.260;2023-04-03T15:35:41;20.00;53.60
59162;DHT22;44942;48.936;8.260;2023-04-03T15:40:41;20.00;53.70
59162;DHT22;44942;48.936;8.260;2023-04-03T15:45:44;20.10;53.80
59162;DHT22;44942;48.936;8.260;2023-04-03T15:50:45;20.10;53.70
59162;DHT22;44942;48.936;8.260;2023-04-03T15:55:45;20.10;53.60
59162;DHT22;44942;48.936;8.260;2023-04-03T16:00:46;20.10;53.50
59162;DHT22;44942;48.936;8.260;2023-04-03T16:05:47;20.10;53.50
59162;DHT22;44942;48.936;8.260;2023-04-03T16:10:48;20.10;53.30
59162;DHT22;44942;48.936;8.260;2023-04-03T16:15:48;20.10;53.20
59162;DHT22;44942;48.936;8.260;2023-04-03T16:20:49;20.20;53.30
59162;DHT22;44942;48.936;8.260;2023-04-03T16:25:50;20.20;53.30
59162;DHT22;44942;48.936;8.260;2023-04-03T16:30:51;20.20;53.30
59162;DHT22;44942;48.936;8.260;2023-04-03T16:35:52;20.20;53.40
59162;DHT22;44942;48.936;8.260;2023-04-03T16:40:52;20.20;53.40
59162;DHT22;44942;48.936;8.260;2023-04-03T16:45:57;20.20;53.40
59162;DHT22;44942;48.936;8.260;2023-04-03T16:50:58;20.20;54.20
59162;DHT22;44942;48.936;8.260;2023-04-03T16:55:58;20.20;53.40
59162;DHT22;44942;48.936;8.260;2023-04-03T17:01:12;20.30;53.40
59162;DHT22;44942;48.936;8.260;2023-04-03T17:06:18;20.30;53.60
59162;DHT22;44942;48.936;8.260;2023-04-03T17:11:19;20.30;53.50
59162;DHT22;44942;48.936;8.260;2023-04-03T17:16:20;20.30;53.50
59162;DHT22;44942;48.936;8.260;2023-04-03T17:21:22;20.30;53.50
59162;DHT22;44942;48.936;8.260;2023-04-03T17:26:23;20.30;53.60
59162;DHT22;44942;48.936;8.260;2023-04-03T17:31:25;20.30;53.50
59162;DHT22;44942;48.936;8.260;2023-04-03T17:36:30;20.30;53.60
59162;DHT22;44942;48.936;8.260;2023-04-03T17:41:31;20.30;53.60
59162;DHT22;44942;48.936;8.260;2023-04-03T17:46:32;20.30;53.60
59162;DHT22;44942;48.936;8.260;2023-04-03T17:51:33;20.40;53.60
59162;DHT22;44942;48.936;8.260;2023-04-03T17:56:33;20.40;53.70
59162;DHT22;44942;48.936;8.260;2023-04-03T18:01:34;20.40;53.60
59162;DHT22;44942;48.936;8.260;2023-04-03T18:06:46;20.40;53.60
59162;DHT22;44942;48.936;8.260;2023-04-03T18:11:47;20.40;53.60
59162;DHT22;44942;48.936;8.260;2023-04-03T18:16:49;20.40;53.60
59162;DHT22;44942;48.936;8.260;2023-04-03T18:22:01;20.40;53.60
59162;DHT22;44942;48.936;8.260;2023-04-03T18:27:09;20.40;53.50
59162;DHT22;44942;48.936;8.260;2023-04-03T18:32:13;20.40;53.50
59162;DHT22;44942;48.936;8.260;2023-04-03T18:37:14;20.40;53.50
59162;DHT22;44942;48.936;8.260;2023-04-03T18:42:18;20.40;53.50
59162;DHT22;44942;48.936;8.260;2023-04-03T18:47:19;20.40;53.50
59162;DHT22;44942;48.936;8.260;2023-04-03T18:52:20;20.40;53.40
59162;DHT22;44942;48.936;8.260;2023-04-03T18:57:21;20.40;53.40
59162;DHT22;44942;48.936;8.260;2023-04-03T19:02:21;20.40;53.50
59162;DHT22;44942;48.936;8.260;2023-04-03T19:07:25;20.40;53.50
59162;DHT22;44942;48.936;8.260;2023-04-03T19:12:25;20.40;53.40
59162;DHT22;44942;48.936;8.260;2023-04-03T19:17:26;20.40;53.40
59162;DHT22;44942;48.936;8.260;2023-04-03T19:22:28;20.40;53.40
59162;DHT22;44942;48.936;8.260;2023-04-03T19:27:30;20.40;53.40
59162;DHT22;44942;48.936;8.260;2023-04-03T19:32:30;20.40;53.30
59162;DHT22;44942;48.936;8.260;2023-04-03T19:37:31;20.40;53.40
59162;DHT22;44942;48.936;8.260;2023-04-03T19:42:32;20.40;53.40
59162;DHT22;44942;48.936;8.260;2023-04-03T19:47:34;20.40;53.40
59162;DHT22;44942;48.936;8.260;2023-04-03T19:52:34;20.40;53.30
59162;DHT22;44942;48.936;8.260;2023-04-03T19:57:35;20.40;53.40
59162;DHT22;44942;48.936;8.260;2023-04-03T20:02:36;20.40;53.30
59162;DHT22;44942;48.936;8.260;2023-04-03T20:07:36;20.40;53.30
59162;DHT22;44942;48.936;8.260;2023-04-03T20:12:37;20.50;53.40
59162;DHT22;44942;48.936;8.260;2023-04-03T20:17:38;20.50;53.40
59162;DHT22;44942;48.936;8.260;2023-04-03T20:22:39;20.50;53.40
59162;DHT22;44942;48.936;8.260;2023-04-03T20:27:40;20.50;53.40
59162;DHT22;44942;48.936;8.260;2023-04-03T20:32:40;20.50;53.50
59162;DHT22;44942;48.936;8.260;2023-04-03T20:37:41;20.40;52.80
59162;DHT22;44942;48.936;8.260;2023-04-03T20:42:42;20.20;51.80
59162;DHT22;44942;48.936;8.260;2023-04-03T20:47:43;20.10;51.90
59162;DHT22;44942;48.936;8.260;2023-04-03T20:52:44;20.20;51.30
59162;DHT22;44942;48.936;8.260;2023-04-03T20:57:45;20.20;51.50
59162;DHT22;44942;48.936;8.260;2023-04-03T21:02:46;20.30;51.60
59162;DHT22;44942;48.936;8.260;2023-04-03T21:19:08;20.30;52.00
59162;DHT22;44942;48.936;8.260;2023-04-03T21:24:09;20.40;52.10
59162;DHT22;44942;48.936;8.260;2023-04-03T21:29:11;20.40;52.20
59162;DHT22;44942;48.936;8.260;2023-04-03T21:34:11;20.40;52.20
59162;DHT22;44942;48.936;8.260;2023-04-03T21:39:13;20.30;51.60
59162;DHT22;44942;48.936;8.260;2023-04-03T21:44:13;20.10;50.60
59162;DHT22;44942;48.936;8.260;2023-04-03T21:49:14;20.00;50.00
59162;DHT22;44942;48.936;8.260;2023-04-03T21:54:15;20.10;50.20
59162;DHT22;44942;48.936;8.260;2023-04-03T21:59:16;20.10;50.50
59162;DHT22;44942;48.936;8.260;2023-04-03T22:04:17;20.20;50.80
59162;DHT22;44942;48.936;8.260;2023-04-03T22:09:17;20.20;51.10
59162;DHT22;44942;48.936;8.260;2023-04-03T22:14:18;20.20;51.20
59162;DHT22;44942;48.936;8.260;2023-04-03T22:19:18;20.20;51.40
59162;DHT22;44942;48.936;8.260;2023-04-03T22:24:19;20.30;51.60
59162;DHT22;44942;48.936;8.260;2023-04-03T22:29:20;20.30;51.60
59162;DHT22;44942;48.936;8.260;2023-04-03T22:34:20;20.30;51.70
59162;DHT22;44942;48.936;8.260;2023-04-03T22:39:22;20.30;51.90
59162;DHT22;44942;48.936;8.260;2023-04-03T22:44:23;20.30;51.90
59162;DHT22;44942;48.936;8.260;2023-04-03T22:49:23;20.30;51.90
59162;DHT22;44942;48.936;8.260;2023-04-03T22:54:24;20.30;52.00
59162;DHT22;44942;48.936;8.260;2023-04-03T22:59:24;20.30;52.00
59162;DHT22;44942;48.936;8.260;2023-04-03T23:04:25;20.30;52.10
59162;DHT22;44942;48.936;8.260;2023-04-03T23:09:25;20.30;52.20
59162;DHT22;44942;48.936;8.260;2023-04-03T23:14:26;20.30;52.20
59162;DHT22;44942;48.936;8.260;2023-04-03T23:19:27;20.40;52.30
59162;DHT22;44942;48.936;8.260;2023-04-03T23:24:27;20.30;52.30
59162;DHT22;44942;48.936;8.260;2023-04-03T23:29:28;20.30;52.40
59162;DHT22;44942;48.936;8.260;2023-04-03T23:34:29;20.30;52.40
59162;DHT22;44942;48.936;8.260;2023-04-03T23:39:29;20.20;51.70
59162;DHT22;44942;48.936;8.260;2023-04-03T23:44:30;20.00;50.60
59162;DHT22;44942;48.936;8.260;2023-04-03T23:49:30;19.90;50.00
59162;DHT22;44942;48.936;8.260;2023-04-03T23:54:31;20.00;50.10
59162;DHT22;44942;48.936;8.260;2023-04-03T23:59:31;20.00;50.30
